Etusivu
METAR-TAF:

METAR-TAF

Lentoasemat :

Vientiane, Laos

Leveyspiiri: 17-57N, Pituuspiiri: 102-34E, korkeus merenpinnasta: 171 m

Tämänhetkinen sää

Tämä raportti tehtiin 49 minuuttia sitten, kello 01.00 UTC
Tuuli 4 kn luoteesta
Lämpötila 32°C
Kosteus 75%
Ilmanpaine 1005 hPa
Näkyvyys: 8000 m

METAR: VLVT 010100Z 32004KT 8000 NSC 32/27 Q1005 NOSIG

Aika: 08:49 (01:49 UTC)

Sääennuste

Tämä raportti tehtiin 2 tuntia ja 49 minuuttia sitten, kello 23.00 UTC
Ennuste voimassa 01. päivästä klo 00 UTC - 01. päivään klo 24 UTC
Tuuli 4 kn lännestä/lounaasta
Näkyvyys: 8000 m
Muutamia pilviä 2000 ft:n korkeudessa
Muutamia pilviä 5000 ft:n korkeudessa
Hajanaisia pilviä 20000 ft:n korkeudessa

TAF: VLVT 312300Z 0100/0124 24004KT 8000 FEW020 FEW050 SCT200

Säähavainnot ja -ennusteet yli 4000 lentoasemalta (METAR- ja TAF-raportit).

Käytössä olevat sääasemat on merkitty karttaan keltaisilla ja punaisilla pisteillä.

Aseta hiiri pisteen päälle nähdäksesi sääaseman nimen.

Klikkaa sitten nähdäksesi säähavainnot ja -ennusteet.

Kartan vaihtaminen: klikkaa mustalla rastilla varustettuja vihreitä pisteitä, niin voit zoomata sisään; viivalla varustettua vihreää pistettä, niin voit zoomata ulos tai vihreitä nuolia, niin pääset viereisille kartoille.


METAR-TAF: